Πληροφορίες Meteoalarm


Οι άλλοι ιστότοποί μου:

PWS_Dashboardsykiaweather.alinos.eu/pwsWD/

SYKIA METEOTEMPLATEsykiameteo.alinos.eu

alinos.eualinos.eu



Αναφορές γειτονικών METAR

   
LGEL - Elefsis (hel-Afb, Greece
Απόσταση από τον σταθμό: Α 77 km
Ενημερώθηκε: 04-10-2022 05:20
Διάσπαρτα νέφη  
Διάσπαρτα νέφη  
   Ανεμος: ΒΒΔ 22.2 km/h
Ανεμος: ΒΒΔ 22.2 km/h
Θερμοκρασία: 20°C
Σημείο Δρόσου: 10°C
Υγρασία: 53%
Βαρόμετρο: 1013 hPa
Νεφώσεις: Διάσπαρτα νέφη
Ορατότητα: More than 10 km
Στοιχεία νεφών: Διάσπαρτα νέφη 2500 ft
LGEL 040220Z 34012KT 9999 FEW025 20/10 Q1013
LGRX - Araxos (civ/Afb), Greece
Απόσταση από τον σταθμό: Δ 110 km
Ενημερώθηκε: 04-10-2022 04:50
Αίθριος  
Αίθριος  
   Ανεμος: μεταβλητός 5.6 km/h
Ανεμος: μεταβλητός 5.6 km/h
Θερμοκρασία: 18°C
Σημείο Δρόσου: 15°C
Υγρασία: 83%
Βαρόμετρο: 1012 hPa
Ορατότητα: More than 10 km
Στοιχεία νεφών: Αίθριος
LGRX 040150Z VRB03KT CAVOK 18/15 Q1012
LGAV - Athens/Elef-Ven, Greece
Απόσταση από τον σταθμό: Α 113 km
Ενημερώθηκε: 04-10-2022 05:20
Διάσπαρτα νέφη  
Διάσπαρτα νέφη  
   Ανεμος: ΒΒΑ 31.5 km/h
Ανεμος: ΒΒΑ 31.5 km/h
Θερμοκρασία: 20°C
Σημείο Δρόσου: 12°C
Υγρασία: 60%
Βαρόμετρο: 1013 hPa
Νεφώσεις: Διάσπαρτα νέφη
Ορατότητα: More than 10 km
Στοιχεία νεφών: Διάσπαρτα νέφη 3000 ft
LGAV 040220Z 03017KT 9999 FEW030 20/12 Q1013 NOSIG
LGAD - Andravida (civ/A, Greece
Απόσταση από τον σταθμό: Δ 124 km
Ενημερώθηκε: 04-10-2022 05:20
Διάσπαρτα νέφη  
Διάσπαρτα νέφη  
   Ανεμος: Απνοια
Ανεμος: Απνοια
Θερμοκρασία: 15°C
Σημείο Δρόσου: 14°C
Υγρασία: 94%
Βαρόμετρο: 1012 hPa
Νεφώσεις: Διάσπαρτα νέφη
Ορατότητα: More than 10 km
Στοιχεία νεφών: Διάσπαρτα νέφη 2000 ft
LGAD 040220Z 00000KT 9999 FEW020 15/14 Q1012
LGKL - Kalamata (hel-Af, Greece
Απόσταση από τον σταθμό: ΝΝΔ 124 km
Ενημερώθηκε: 04-10-2022 05:20
Διάσπαρτα νέφη  
Διάσπαρτα νέφη  
   Ανεμος: μεταβλητός 5.6 km/h
Ανεμος: μεταβλητός 5.6 km/h
Θερμοκρασία: 17°C
Σημείο Δρόσου: 15°C
Υγρασία: 88%
Βαρόμετρο: 1011 hPa
Νεφώσεις: Διάσπαρτα νέφη
Ορατότητα: More than 10 km
Στοιχεία νεφών: Διάσπαρτα νέφη 3000 ft
LGKL 040220Z VRB03KT 9999 FEW030 17/15 Q1011
LGBL - Nea Anchialos, Greece
Απόσταση από τον σταθμό: Β 129 km
Ενημερώθηκε: 04-10-2022 04:50
Μερικώς νεφελώδης  
Μερικώς νεφελώδης  
   Ανεμος: Βόρια 20.4 km/h
Ανεμος: Βόρια 20.4 km/h
Θερμοκρασία: 19°C
Σημείο Δρόσου: 7°C
Υγρασία: 46%
Βαρόμετρο: 1015 hPa
Νεφώσεις: Μερικώς νεφελώδης
Ορατότητα: More than 10 km
Στοιχεία νεφών: Διάσπαρτα νέφη 4000 ft,
Μερικώς νεφελώδης 8000 ft
LGBL 040150Z 36011KT 9999 FEW040 SCT080 19/07 Q1015

Αρχική γραφή από  Saratoga-weather.org Προσαρμογή στον ιστότοπο από  Weerstation Leuven

Βλέπε επίσης τις ενημερώσεις τού σταθμού μας στα παρακάτω δίκτυα:

European Weather Network

Weather Underground

AWEKAS

Citizen Weather Observer Program (CWOP)

UK Metoffice

Equipment we use:

Μετεωρολογικός σταθμός
Davis Wireless Vantage Pro2

Davis Wireless Vantage Pro2